Montinho — CSYD — position and weather

sailwx.info

Track history (hours):
 
Tides and Currents Weather Stations Pressure Air Temp Water Temp Dewpoint Dewpoint Depression Visibility Wind Speed Wind Dir Waves Ship Positions

Montinho

Last reported at 2018-Feb-18 04:48 UTC. Time now 2018-Feb-21 23:33 UTC.
Position N 38°28' W 008°47'.

Length 33 m; draft 4.6 m.

Type: Towing. MMSI: 263601490.

Date/timePositionNaut miles runAvg speedWind from/ knotsBaromVisibWave heightAir tempDewpointWater temp
2018-Feb-18 04:48N 38°28' W 008°47'0 0.4
2018-Feb-18 03:56N 38°28' W 008°47'2 4.0
2018-Feb-18 03:30N 38°27' W 008°49'0 0.6
2018-Feb-18 02:53N 38°28' W 008°49'1 3.4
2018-Feb-18 02:30N 38°28' W 008°47'0 0.0
2018-Feb-18 00:42N 38°28' W 008°47'0 0.1
2018-Feb-18 00:16N 38°28' W 008°47'0 0.0
2018-Feb-17 23:43N 38°28' W 008°47'0 0.0
2018-Feb-17 23:18N 38°28' W 008°47'0 0.1
2018-Feb-17 22:51N 38°28' W 008°47'0 0.0
2018-Feb-17 22:30N 38°28' W 008°47'0 0.0
2018-Feb-17 21:58N 38°28' W 008°47'0 0.0
2018-Feb-17 21:29N 38°28' W 008°47'0 0.0
2018-Feb-17 21:00N 38°28' W 008°47'0 0.0
2018-Feb-17 20:23N 38°28' W 008°47'0 0.0
2018-Feb-17 20:00N 38°28' W 008°47'1 1.5
2018-Feb-17 19:18N 38°28' W 008°49'3 9.1
2018-Feb-17 19:00N 38°29' W 008°52'0 0.0
2018-Feb-17 18:14N 38°29' W 008°52'0 0.0
2018-Feb-17 17:58N 38°29' W 008°52'0 0.2
2018-Feb-17 17:29N 38°29' W 008°52'2 2.7
2018-Feb-17 16:55N 38°28' W 008°50'2 1.5
2018-Feb-17 15:34N 38°28' W 008°48'0 0.1
2018-Feb-17 15:22N 38°28' W 008°48'0 0.6
2018-Feb-17 14:58N 38°28' W 008°48'0 0.7
2018-Feb-17 14:27N 38°28' W 008°47'0 0.0
2018-Feb-17 14:00N 38°28' W 008°47'0 0.0
2018-Feb-17 13:30N 38°28' W 008°47'0 0.0
2018-Feb-17 12:57N 38°28' W 008°47'1 2.7
2018-Feb-17 12:29N 38°28' W 008°49'2 2.5
2018-Feb-17 11:50N 38°28' W 008°51'1 2.3
2018-Feb-17 11:25N 38°29' W 008°52'4 8.1
2018-Feb-17 10:58N 38°29' W 008°56'2 5.4
2018-Feb-17 10:30N 38°27' W 008°58'0 0.2
2018-Feb-17 10:00N 38°27' W 008°58'1 2.5
2018-Feb-17 09:30N 38°26' W 008°60'0 0.7
2018-Feb-17 09:00N 38°26' W 008°60'3 5.8
2018-Feb-17 08:30N 38°24' W 008°57'2 3.2
2018-Feb-17 07:59N 38°25' W 008°58'611.6
2018-Feb-17 07:29N 38°30' W 008°53'5 2.2
2018-Feb-17 05:20N 38°28' W 008°47'0 0.0
2018-Feb-17 04:59N 38°28' W 008°47'1 0.3
2018-Feb-17 03:04N 38°28' W 008°48'1 6.0
2018-Feb-17 02:55N 38°28' W 008°49'1 2.1
2018-Feb-17 02:17N 38°28' W 008°51'0 0.9
2018-Feb-17 02:00N 38°28' W 008°51'3 0.8
2018-Feb-16 22:50N 38°28' W 008°47'3 0.6
2018-Feb-16 17:33N 38°29' W 008°52'0 0.1
2018-Feb-16 17:30N 38°29' W 008°52'0 0.4
2018-Feb-16 16:54N 38°29' W 008°51'2 3.8
2018-Feb-16 16:17N 38°28' W 008°48'1 0.5
2018-Feb-16 15:07N 38°28' W 008°48'0 0.1
2018-Feb-16 15:00N 38°28' W 008°48'  
Track history (hours):
 
Tides and Currents Weather Stations Pressure Air Temp Water Temp Dewpoint Dewpoint Depression Visibility Wind Speed Wind Dir Waves Ship Positions

Montinho

Last reported at 2018-Feb-18 04:48 UTC. Time now 2018-Feb-21 23:33 UTC.
Position N 38°28' W 008°47'.

Length 33 m; draft 4.6 m.

Type: Towing. MMSI: 263601490.

Date/timePositionNaut miles runAvg speedWind from/ knotsBaromVisibWave heightAir tempDewpointWater temp
2018-Feb-18 04:48N 38°28' W 008°47'0 0.4
2018-Feb-18 03:56N 38°28' W 008°47'2 4.0
2018-Feb-18 03:30N 38°27' W 008°49'0 0.6
2018-Feb-18 02:53N 38°28' W 008°49'1 3.4
2018-Feb-18 02:30N 38°28' W 008°47'0 0.0
2018-Feb-18 00:42N 38°28' W 008°47'0 0.1
2018-Feb-18 00:16N 38°28' W 008°47'0 0.0
2018-Feb-17 23:43N 38°28' W 008°47'0 0.0
2018-Feb-17 23:18N 38°28' W 008°47'0 0.1
2018-Feb-17 22:51N 38°28' W 008°47'0 0.0
2018-Feb-17 22:30N 38°28' W 008°47'0 0.0
2018-Feb-17 21:58N 38°28' W 008°47'0 0.0
2018-Feb-17 21:29N 38°28' W 008°47'0 0.0
2018-Feb-17 21:00N 38°28' W 008°47'0 0.0
2018-Feb-17 20:23N 38°28' W 008°47'0 0.0
2018-Feb-17 20:00N 38°28' W 008°47'1 1.5
2018-Feb-17 19:18N 38°28' W 008°49'3 9.1
2018-Feb-17 19:00N 38°29' W 008°52'0 0.0
2018-Feb-17 18:14N 38°29' W 008°52'0 0.0
2018-Feb-17 17:58N 38°29' W 008°52'0 0.2
2018-Feb-17 17:29N 38°29' W 008°52'2 2.7
2018-Feb-17 16:55N 38°28' W 008°50'2 1.5
2018-Feb-17 15:34N 38°28' W 008°48'0 0.1
2018-Feb-17 15:22N 38°28' W 008°48'0 0.6
2018-Feb-17 14:58N 38°28' W 008°48'0 0.7
2018-Feb-17 14:27N 38°28' W 008°47'0 0.0
2018-Feb-17 14:00N 38°28' W 008°47'0 0.0
2018-Feb-17 13:30N 38°28' W 008°47'0 0.0
2018-Feb-17 12:57N 38°28' W 008°47'1 2.7
2018-Feb-17 12:29N 38°28' W 008°49'2 2.5
2018-Feb-17 11:50N 38°28' W 008°51'1 2.3
2018-Feb-17 11:25N 38°29' W 008°52'4 8.1
2018-Feb-17 10:58N 38°29' W 008°56'2 5.4
2018-Feb-17 10:30N 38°27' W 008°58'0 0.2
2018-Feb-17 10:00N 38°27' W 008°58'1 2.5
2018-Feb-17 09:30N 38°26' W 008°60'0 0.7
2018-Feb-17 09:00N 38°26' W 008°60'3 5.8
2018-Feb-17 08:30N 38°24' W 008°57'2 3.2
2018-Feb-17 07:59N 38°25' W 008°58'611.6
2018-Feb-17 07:29N 38°30' W 008°53'5 2.2
2018-Feb-17 05:20N 38°28' W 008°47'0 0.0
2018-Feb-17 04:59N 38°28' W 008°47'1 0.3
2018-Feb-17 03:04N 38°28' W 008°48'1 6.0
2018-Feb-17 02:55N 38°28' W 008°49'1 2.1
2018-Feb-17 02:17N 38°28' W 008°51'0 0.9
2018-Feb-17 02:00N 38°28' W 008°51'3 0.8
2018-Feb-16 22:50N 38°28' W 008°47'3 0.6
2018-Feb-16 17:33N 38°29' W 008°52'0 0.1
2018-Feb-16 17:30N 38°29' W 008°52'0 0.4
2018-Feb-16 16:54N 38°29' W 008°51'2 3.8
2018-Feb-16 16:17N 38°28' W 008°48'1 0.5
2018-Feb-16 15:07N 38°28' W 008°48'0 0.1
2018-Feb-16 15:00N 38°28' W 008°48'  

Dump ship's entire track history